Wetterdaten: Montag, 13.10.2014
Datum Zeit Temperatur Luftfeuchte Luftdruck Regen Wind Richtung Richtung Taupunkt Windchill Windben
13.10.2014 00:00 8,8 C 90 % 1013,6 hPa 0,0 l/m 0,0 km/h (0 Bft) S-SO 157 7,3 C 22,8 C 0,0 km/h (0 Bft)
13.10.2014 00:10 8,3 C 90 % 1013,8 hPa 0,0 l/m 0,0 km/h (0 Bft) S-SO 157 6,8 C 22,8 C 0,0 km/h (0 Bft)
13.10.2014 00:20 8,0 C 90 % 1013,8 hPa 0,0 l/m 0,0 km/h (0 Bft) S-SO 157 6,5 C 22,8 C 0,0 km/h (0 Bft)
13.10.2014 00:30 8,1 C 90 % 1013,8 hPa 0,0 l/m 0,0 km/h (0 Bft) S-SO 157 6,6 C 22,8 C 0,0 km/h (0 Bft)
13.10.2014 00:40 7,7 C 90 % 1013,8 hPa 0,0 l/m 0,0 km/h (0 Bft) S-SO 157 6,2 C 22,8 C 0,0 km/h (0 Bft)
13.10.2014 00:50 8,0 C 90 % 1013,9 hPa 0,0 l/m 0,0 km/h (0 Bft) S-SO 157 6,5 C 22,8 C 0,0 km/h (0 Bft)
13.10.2014 01:00 8,2 C 91 % 1013,9 hPa 0,0 l/m 0,0 km/h (0 Bft) S-SO 157 6,8 C 22,8 C 0,0 km/h (0 Bft)
13.10.2014 01:08 8,1 C 91 % 1013,8 hPa 0,0 l/m 0,0 km/h (0 Bft) S-SO 157 6,7 C 22,8 C 0,0 km/h (0 Bft)
13.10.2014 01:10 8,1 C 91 % 1013,8 hPa 0,0 l/m 0,0 km/h (0 Bft) S-SO 157 6,7 C 22,8 C 0,0 km/h (0 Bft)
13.10.2014 01:20 7,7 C 91 % 1013,8 hPa 0,0 l/m 0,0 km/h (0 Bft) S-SO 157 6,3 C 22,8 C 0,0 km/h (0 Bft)
13.10.2014 01:30 7,6 C 91 % 1013,6 hPa 0,0 l/m 0,0 km/h (0 Bft) S-SO 157 6,2 C 22,8 C 0,0 km/h (0 Bft)
13.10.2014 01:40 7,9 C 91 % 1013,6 hPa 0,0 l/m 0,0 km/h (0 Bft) S-SO 157 6,5 C 22,8 C 0,0 km/h (0 Bft)
13.10.2014 01:50 8,0 C 91 % 1013,6 hPa 0,0 l/m 0,0 km/h (0 Bft) S-SO 157 6,6 C 22,8 C 0,0 km/h (0 Bft)
13.10.2014 02:00 7,8 C 91 % 1013,6 hPa 0,0 l/m 0,0 km/h (0 Bft) S-SO 157 6,4 C 22,8 C 0,0 km/h (0 Bft)
13.10.2014 02:10 8,4 C 92 % 1013,6 hPa 0,0 l/m 0,0 km/h (0 Bft) S-SO 157 7,2 C 22,8 C 0,0 km/h (0 Bft)
13.10.2014 02:20 8,1 C 91 % 1013,6 hPa 0,0 l/m 0,0 km/h (0 Bft) S-SO 157 6,7 C 22,8 C 0,0 km/h (0 Bft)
13.10.2014 02:30 9,3 C 92 % 1013,9 hPa 0,0 l/m 0,0 km/h (0 Bft) S-SO 157 8,1 C 22,8 C 0,0 km/h (0 Bft)
13.10.2014 02:40 8,4 C 90 % 1013,9 hPa 0,0 l/m 0,0 km/h (0 Bft) S-SO 157 6,9 C 22,8 C 0,0 km/h (0 Bft)
13.10.2014 02:50 8,9 C 90 % 1013,6 hPa 0,0 l/m 0,0 km/h (0 Bft) S-SO 157 7,4 C 22,8 C 0,0 km/h (0 Bft)
13.10.2014 03:00 9,0 C 90 % 1013,6 hPa 0,0 l/m 0,0 km/h (0 Bft) S-SO 157 7,4 C 22,8 C 0,0 km/h (0 Bft)
13.10.2014 03:10 8,4 C 90 % 1013,2 hPa 0,0 l/m 0,0 km/h (0 Bft) S-SO 157 6,9 C 22,8 C 0,0 km/h (0 Bft)
13.10.2014 03:20 8,2 C 90 % 1013,2 hPa 0,0 l/m 0,0 km/h (0 Bft) S-SO 157 6,7 C 22,8 C 0,0 km/h (0 Bft)
13.10.2014 03:30 8,1 C 90 % 1013,0 hPa 0,0 l/m 0,0 km/h (0 Bft) S-SO 157 6,6 C 22,8 C 0,0 km/h (0 Bft)
13.10.2014 03:40 10,4 C 90 % 1013,0 hPa 0,0 l/m 0,0 km/h (0 Bft) S-SO 157 8,8 C 22,8 C 0,0 km/h (0 Bft)
13.10.2014 03:50 9,9 C 90 % 1012,9 hPa 0,0 l/m 0,0 km/h (0 Bft) S-SO 157 8,3 C 22,8 C 0,0 km/h (0 Bft)
13.10.2014 04:00 9,2 C 87 % 1012,9 hPa 0,0 l/m 0,0 km/h (0 Bft) S-SO 157 7,2 C 22,8 C 0,0 km/h (0 Bft)
13.10.2014 04:08 9,3 C 87 % 1013,0 hPa 0,0 l/m 0,0 km/h (0 Bft) S-SO 157 7,2 C 22,8 C 0,0 km/h (0 Bft)
13.10.2014 04:10 9,3 C 87 % 1013,0 hPa 0,0 l/m 0,0 km/h (0 Bft) S-SO 157 7,2 C 22,8 C 0,0 km/h (0 Bft)
13.10.2014 04:20 10,1 C 87 % 1013,0 hPa 0,0 l/m 0,0 km/h (0 Bft) S-SO 157 8,0 C 22,8 C 0,0 km/h (0 Bft)
13.10.2014 04:30 11,1 C 85 % 1012,9 hPa 0,0 l/m 0,0 km/h (0 Bft) S-SO 157 8,7 C 22,8 C 0,0 km/h (0 Bft)
13.10.2014 04:40 10,8 C 85 % 1012,9 hPa 0,0 l/m 0,0 km/h (0 Bft) S-SO 157 8,4 C 22,8 C 0,0 km/h (0 Bft)
13.10.2014 04:50 13,6 C 79 % 1013,0 hPa 0,0 l/m 0,0 km/h (0 Bft) S-SO 157 10,0 C 22,8 C 0,0 km/h (0 Bft)
13.10.2014 05:00 15,4 C 69 % 1013,0 hPa 0,0 l/m 0,0 km/h (0 Bft) S-SO 157 9,7 C 22,8 C 0,0 km/h (0 Bft)
13.10.2014 05:10 12,4 C 74 % 1012,9 hPa 0,0 l/m 0,0 km/h (0 Bft) S-SO 157 7,9 C 22,8 C 0,0 km/h (0 Bft)
13.10.2014 05:20 12,5 C 77 % 1012,9 hPa 0,0 l/m 0,0 km/h (0 Bft) S-SO 157 8,6 C 22,8 C 0,0 km/h (0 Bft)
13.10.2014 05:30 13,4 C 77 % 1012,8 hPa 0,0 l/m 0,0 km/h (0 Bft) S-SO 157 9,5 C 22,8 C 0,0 km/h (0 Bft)
13.10.2014 05:40 14,4 C 69 % 1012,8 hPa 0,0 l/m 0,0 km/h (0 Bft) S-SO 157 8,8 C 22,8 C 0,0 km/h (0 Bft)
13.10.2014 05:50 14,2 C 70 % 1012,8 hPa 0,0 l/m 0,0 km/h (0 Bft) S-SO 157 8,8 C 22,8 C 0,0 km/h (0 Bft)
13.10.2014 06:00 12,8 C 74 % 1012,8 hPa 0,0 l/m 0,0 km/h (0 Bft) S-SO 157 8,3 C 22,8 C 0,0 km/h (0 Bft)
13.10.2014 06:10 14,6 C 71 % 1012,8 hPa 0,0 l/m 0,0 km/h (0 Bft) S-SO 157 9,4 C 22,8 C 0,0 km/h (0 Bft)
13.10.2014 06:20 13,3 C 75 % 1012,8 hPa 0,0 l/m 0,0 km/h (0 Bft) S-SO 157 9,0 C 22,8 C 0,0 km/h (0 Bft)
13.10.2014 06:30 15,5 C 66 % 1013,1 hPa 0,0 l/m 0,0 km/h (0 Bft) S-SO 157 9,2 C 22,8 C 0,0 km/h (0 Bft)
13.10.2014 06:40 15,0 C 67 % 1013,1 hPa 0,0 l/m 0,0 km/h (0 Bft) S-SO 157 8,9 C 22,8 C 0,0 km/h (0 Bft)
13.10.2014 06:50 14,8 C 68 % 1013,1 hPa 0,0 l/m 0,0 km/h (0 Bft) S-SO 157 9,0 C 22,8 C 0,0 km/h (0 Bft)
13.10.2014 07:00 13,6 C 73 % 1013,1 hPa 0,0 l/m 0,0 km/h (0 Bft) S-SO 157 8,9 C 22,8 C 0,0 km/h (0 Bft)
13.10.2014 07:08 14,4 C 73 % 1012,9 hPa 0,0 l/m 0,0 km/h (0 Bft) S-SO 157 9,6 C 22,8 C 0,0 km/h (0 Bft)
13.10.2014 07:10 14,4 C 73 % 1012,9 hPa 0,0 l/m 0,0 km/h (0 Bft) S-SO 157 9,6 C 22,8 C 0,0 km/h (0 Bft)
13.10.2014 07:20 14,4 C 72 % 1012,9 hPa 0,0 l/m 0,0 km/h (0 Bft) S-SO 157 9,4 C 22,8 C 0,0 km/h (0 Bft)
13.10.2014 07:30 14,9 C 69 % 1012,9 hPa 0,0 l/m 0,0 km/h (0 Bft) S-SO 157 9,3 C 22,8 C 0,0 km/h (0 Bft)
13.10.2014 07:40 15,2 C 67 % 1012,9 hPa 0,0 l/m 0,0 km/h (0 Bft) S-SO 157 9,1 C 22,8 C 0,0 km/h (0 Bft)
13.10.2014 07:50 15,1 C 66 % 1012,7 hPa 0,0 l/m 0,0 km/h (0 Bft) S-SO 157 8,8 C 22,8 C 0,0 km/h (0 Bft)
13.10.2014 08:00 14,6 C 67 % 1012,7 hPa 0,0 l/m 0,0 km/h (0 Bft) S-SO 157 8,5 C 22,8 C 0,0 km/h (0 Bft)
13.10.2014 08:10 14,2 C 69 % 1012,9 hPa 0,0 l/m 0,0 km/h (0 Bft) S-SO 157 8,6 C 22,8 C 0,0 km/h (0 Bft)
13.10.2014 08:20 14,4 C 70 % 1012,9 hPa 0,0 l/m 0,0 km/h (0 Bft) S-SO 157 9,0 C 22,8 C 0,0 km/h (0 Bft)
13.10.2014 08:30 14,6 C 70 % 1013,0 hPa 0,0 l/m 0,0 km/h (0 Bft) S-SO 157 9,2 C 22,8 C 0,0 km/h (0 Bft)
13.10.2014 08:40 14,9 C 69 % 1013,0 hPa 0,0 l/m 0,0 km/h (0 Bft) S-SO 157 9,3 C 22,8 C 0,0 km/h (0 Bft)
13.10.2014 08:50 15,3 C 69 % 1013,2 hPa 0,0 l/m 0,0 km/h (0 Bft) S-SO 157 9,6 C 22,8 C 0,0 km/h (0 Bft)
13.10.2014 09:00 16,1 C 63 % 1013,2 hPa 0,0 l/m 0,0 km/h (0 Bft) S-SO 157 9,1 C 22,8 C 0,0 km/h (0 Bft)
13.10.2014 09:10 15,9 C 67 % 1013,2 hPa 0,0 l/m 0,0 km/h (0 Bft) S-SO 157 9,8 C 22,8 C 0,0 km/h (0 Bft)
13.10.2014 09:20 16,1 C 67 % 1013,2 hPa 0,0 l/m 0,0 km/h (0 Bft) S-SO 157 10,0 C 22,8 C 0,0 km/h (0 Bft)
13.10.2014 09:30 16,1 C 65 % 1013,5 hPa 0,0 l/m 0,0 km/h (0 Bft) S-SO 157 9,5 C 22,8 C 0,0 km/h (0 Bft)
13.10.2014 09:40 16,4 C 65 % 1013,5 hPa 0,0 l/m 0,0 km/h (0 Bft) S-SO 157 9,8 C 22,8 C 0,0 km/h (0 Bft)
13.10.2014 09:50 17,1 C 64 % 1013,4 hPa 0,0 l/m 0,0 km/h (0 Bft) S-SO 157 10,2 C 22,8 C 0,0 km/h (0 Bft)
13.10.2014 10:00 17,0 C 65 % 1013,4 hPa 0,0 l/m 0,0 km/h (0 Bft) S-SO 157 10,4 C 22,8 C 0,0 km/h (0 Bft)
13.10.2014 10:08 17,1 C 66 % 1013,6 hPa 0,0 l/m 0,0 km/h (0 Bft) S-SO 157 10,7 C 22,8 C 0,0 km/h (0 Bft)
13.10.2014 10:20 17,0 C 66 % 1013,6 hPa 0,0 l/m 0,0 km/h (0 Bft) S-SO 157 10,6 C 22,8 C 0,0 km/h (0 Bft)
13.10.2014 10:30 17,0 C 66 % 1013,6 hPa 0,0 l/m 0,0 km/h (0 Bft) S-SO 157 10,6 C 22,8 C 0,0 km/h (0 Bft)
13.10.2014 10:40 17,0 C 68 % 1013,6 hPa 0,0 l/m 0,0 km/h (0 Bft) S-SO 157 11,0 C 22,8 C 0,0 km/h (0 Bft)
13.10.2014 10:50 17,7 C 67 % 1014,1 hPa 0,0 l/m 0,0 km/h (0 Bft) S-SO 157 11,5 C 22,8 C 0,0 km/h (0 Bft)
13.10.2014 11:00 18,1 C 69 % 1014,1 hPa 0,0 l/m 0,0 km/h (0 Bft) S-SO 157 12,3 C 22,8 C 0,0 km/h (0 Bft)
13.10.2014 11:10 18,0 C 68 % 1014,2 hPa 0,0 l/m 0,0 km/h (0 Bft) S-SO 157 12,0 C 22,8 C 0,0 km/h (0 Bft)
13.10.2014 11:20 18,0 C 68 % 1014,2 hPa 0,0 l/m 0,0 km/h (0 Bft) S-SO 157 12,0 C 22,8 C 0,0 km/h (0 Bft)
13.10.2014 11:30 17,7 C 68 % 1014,8 hPa 0,0 l/m 0,0 km/h (0 Bft) S-SO 157 11,7 C 22,8 C 0,0 km/h (0 Bft)
13.10.2014 11:40 16,9 C 67 % 1014,8 hPa 0,0 l/m 0,0 km/h (0 Bft) S-SO 157 10,7 C 22,8 C 0,0 km/h (0 Bft)
13.10.2014 11:50 16,1 C 68 % 1015,2 hPa 0,0 l/m 0,0 km/h (0 Bft) S-SO 157 10,2 C 22,8 C 0,0 km/h (0 Bft)
13.10.2014 12:00 15,3 C 72 % 1015,2 hPa 0,0 l/m 0,0 km/h (0 Bft) S-SO 157 10,3 C 22,8 C 0,0 km/h (0 Bft)
13.10.2014 12:10 14,8 C 75 % 1015,4 hPa 0,0 l/m 0,0 km/h (0 Bft) S-SO 157 10,4 C 22,8 C 0,0 km/h (0 Bft)
13.10.2014 12:20 14,6 C 77 % 1015,4 hPa 0,0 l/m 0,0 km/h (0 Bft) S-SO 157 10,6 C 22,8 C 0,0 km/h (0 Bft)
13.10.2014 12:30 14,2 C 82 % 1015,4 hPa 0,0 l/m 0,0 km/h (0 Bft) S-SO 157 11,2 C 22,8 C 0,0 km/h (0 Bft)
13.10.2014 12:40 14,1 C 88 % 1015,4 hPa 0,0 l/m 0,0 km/h (0 Bft) S-SO 157 12,1 C 22,8 C 0,0 km/h (0 Bft)
13.10.2014 12:50 14,5 C 89 % 1015,1 hPa 0,0 l/m 0,0 km/h (0 Bft) S-SO 157 12,7 C 22,8 C 0,0 km/h (0 Bft)
13.10.2014 13:00 15,6 C 88 % 1015,1 hPa 0,0 l/m 0,0 km/h (0 Bft) S-SO 157 13,6 C 22,8 C 0,0 km/h (0 Bft)
13.10.2014 13:08 16,6 C 87 % 1014,5 hPa 0,0 l/m 0,0 km/h (0 Bft) S-SO 157 14,4 C 22,8 C 0,0 km/h (0 Bft)
13.10.2014 13:10 16,6 C 87 % 1014,5 hPa 0,0 l/m 0,0 km/h (0 Bft) S-SO 157 14,4 C 22,8 C 0,0 km/h (0 Bft)
13.10.2014 13:20 16,6 C 86 % 1014,5 hPa 0,0 l/m 0,0 km/h (0 Bft) S-SO 157 14,2 C 22,8 C 0,0 km/h (0 Bft)
13.10.2014 13:30 16,1 C 85 % 1014,6 hPa 0,0 l/m 0,0 km/h (0 Bft) S-SO 157 13,6 C 22,8 C 0,0 km/h (0 Bft)
13.10.2014 13:40 16,3 C 86 % 1014,6 hPa 0,0 l/m 0,0 km/h (0 Bft) S-SO 157 14,0 C 22,8 C 0,0 km/h (0 Bft)
13.10.2014 13:50 16,1 C 84 % 1014,6 hPa 0,0 l/m 0,0 km/h (0 Bft) S-SO 157 13,4 C 22,8 C 0,0 km/h (0 Bft)
13.10.2014 14:00 15,9 C 85 % 1014,6 hPa 0,0 l/m 0,0 km/h (0 Bft) S-SO 157 13,4 C 22,8 C 0,0 km/h (0 Bft)
13.10.2014 14:10 15,9 C 87 % 1014,6 hPa 0,0 l/m 0,0 km/h (0 Bft) S-SO 157 13,7 C 22,8 C 0,0 km/h (0 Bft)
13.10.2014 14:20 15,9 C 87 % 1014,6 hPa 0,0 l/m 0,0 km/h (0 Bft) S-SO 157 13,7 C 22,8 C 0,0 km/h (0 Bft)
13.10.2014 14:30 16,1 C 86 % 1014,3 hPa 0,0 l/m 0,0 km/h (0 Bft) S-SO 157 13,8 C 22,8 C 0,0 km/h (0 Bft)
13.10.2014 14:40 16,3 C 87 % 1014,3 hPa 0,0 l/m 0,0 km/h (0 Bft) S-SO 157 14,1 C 22,8 C 0,0 km/h (0 Bft)
13.10.2014 14:50 16,0 C 87 % 1014,4 hPa 0,0 l/m 0,0 km/h (0 Bft) S-SO 157 13,8 C 22,8 C 0,0 km/h (0 Bft)
13.10.2014 15:00 16,1 C 87 % 1014,4 hPa 0,0 l/m 0,0 km/h (0 Bft) S-SO 157 13,9 C 22,8 C 0,0 km/h (0 Bft)
13.10.2014 15:10 16,2 C 86 % 1014,4 hPa 0,0 l/m 0,0 km/h (0 Bft) S-SO 157 13,9 C 22,8 C 0,0 km/h (0 Bft)
13.10.2014 15:20 16,6 C 85 % 1014,4 hPa 0,0 l/m 0,0 km/h (0 Bft) S-SO 157 14,1 C 22,8 C 0,0 km/h (0 Bft)
13.10.2014 15:30 16,8 C 79 % 1014,6 hPa 0,0 l/m 0,0 km/h (0 Bft) S-SO 157 13,1 C 22,8 C 0,0 km/h (0 Bft)
13.10.2014 15:40 16,6 C 79 % 1014,6 hPa 0,0 l/m 0,0 km/h (0 Bft) S-SO 157 12,9 C 22,8 C 0,0 km/h (0 Bft)
13.10.2014 15:50 16,3 C 78 % 1014,5 hPa 0,0 l/m 0,0 km/h (0 Bft) S-SO 157 12,5 C 22,8 C 0,0 km/h (0 Bft)
13.10.2014 15:58 16,0 C 78 % 1014,5 hPa 0,0 l/m 0,0 km/h (0 Bft) S-SO 157 12,2 C 22,8 C 0,0 km/h (0 Bft)
13.10.2014 16:00 16,0 C 78 % 1014,5 hPa 0,0 l/m 0,0 km/h (0 Bft) S-SO 157 12,2 C 22,8 C 0,0 km/h (0 Bft)
13.10.2014 16:10 15,4 C 78 % 1014,8 hPa 0,0 l/m 0,0 km/h (0 Bft) S-SO 157 11,6 C 22,8 C 0,0 km/h (0 Bft)
13.10.2014 16:20 15,3 C 80 % 1014,8 hPa 0,0 l/m 0,0 km/h (0 Bft) S-SO 157 11,9 C 22,8 C 0,0 km/h (0 Bft)
13.10.2014 16:30 15,3 C 80 % 1014,8 hPa 0,0 l/m 0,0 km/h (0 Bft) S-SO 157 11,9 C 22,8 C 0,0 km/h (0 Bft)
13.10.2014 16:40 15,1 C 81 % 1014,8 hPa 0,0 l/m 0,0 km/h (0 Bft) S-SO 157 11,9 C 22,8 C 0,0 km/h (0 Bft)
13.10.2014 16:50 14,7 C 80 % 1015,0 hPa 0,0 l/m 0,0 km/h (0 Bft) S-SO 157 11,3 C 22,8 C 0,0 km/h (0 Bft)
13.10.2014 17:00 14,3 C 81 % 1015,0 hPa 0,0 l/m 0,0 km/h (0 Bft) S-SO 157 11,1 C 22,8 C 0,0 km/h (0 Bft)
13.10.2014 17:10 14,0 C 82 % 1014,8 hPa 0,0 l/m 0,0 km/h (0 Bft) S-SO 157 11,0 C 22,8 C 0,0 km/h (0 Bft)
13.10.2014 17:20 13,9 C 83 % 1014,8 hPa 0,0 l/m 0,0 km/h (0 Bft) S-SO 157 11,1 C 22,8 C 0,0 km/h (0 Bft)
13.10.2014 17:30 13,8 C 83 % 1014,6 hPa 0,0 l/m 0,0 km/h (0 Bft) S-SO 157 11,0 C 22,8 C 0,0 km/h (0 Bft)
13.10.2014 17:40 13,7 C 84 % 1014,6 hPa 0,0 l/m 0,0 km/h (0 Bft) S-SO 157 11,0 C 22,8 C 0,0 km/h (0 Bft)
13.10.2014 17:50 13,5 C 85 % 1014,4 hPa 0,0 l/m 0,0 km/h (0 Bft) S-SO 157 11,0 C 22,8 C 0,0 km/h (0 Bft)
13.10.2014 18:00 13,2 C 87 % 1014,4 hPa 0,0 l/m 0,0 km/h (0 Bft) S-SO 157 11,1 C 22,8 C 0,0 km/h (0 Bft)
13.10.2014 18:10 13,0 C 87 % 1013,8 hPa 0,0 l/m 0,0 km/h (0 Bft) S-SO 157 10,9 C 22,8 C 0,0 km/h (0 Bft)
13.10.2014 18:20 12,8 C 88 % 1013,8 hPa 0,0 l/m 0,0 km/h (0 Bft) S-SO 157 10,9 C 22,8 C 0,0 km/h (0 Bft)
13.10.2014 18:30 12,7 C 88 % 1013,9 hPa 0,0 l/m 0,0 km/h (0 Bft) S-SO 157 10,8 C 22,8 C 0,0 km/h (0 Bft)
13.10.2014 18:40 12,5 C 88 % 1013,9 hPa 0,0 l/m 0,0 km/h (0 Bft) S-SO 157 10,6 C 22,8 C 0,0 km/h (0 Bft)
13.10.2014 18:50 12,4 C 89 % 1013,8 hPa 0,0 l/m 0,0 km/h (0 Bft) S-SO 157 10,6 C 22,8 C 0,0 km/h (0 Bft)
13.10.2014 18:58 12,4 C 89 % 1013,8 hPa 0,0 l/m 0,0 km/h (0 Bft) S-SO 157 10,6 C 22,8 C 0,0 km/h (0 Bft)
13.10.2014 19:00 12,4 C 89 % 1013,8 hPa 0,0 l/m 0,0 km/h (0 Bft) S-SO 157 10,6 C 22,8 C 0,0 km/h (0 Bft)
13.10.2014 19:10 12,2 C 89 % 1013,9 hPa 0,0 l/m 0,0 km/h (0 Bft) S-SO 157 10,4 C 22,8 C 0,0 km/h (0 Bft)
13.10.2014 19:20 12,3 C 89 % 1013,9 hPa 0,0 l/m 0,0 km/h (0 Bft) S-SO 157 10,5 C 22,8 C 0,0 km/h (0 Bft)
13.10.2014 19:30 12,1 C 91 % 1014,1 hPa 0,0 l/m 0,0 km/h (0 Bft) S-SO 157 10,7 C 22,8 C 0,0 km/h (0 Bft)
13.10.2014 19:40 12,1 C 91 % 1014,1 hPa 0,0 l/m 0,0 km/h (0 Bft) S-SO 157 10,7 C 22,8 C 0,0 km/h (0 Bft)
13.10.2014 19:50 12,0 C 92 % 1013,9 hPa 0,0 l/m 0,0 km/h (0 Bft) S-SO 157 10,7 C 22,8 C 0,0 km/h (0 Bft)
13.10.2014 20:00 11,9 C 92 % 1013,9 hPa 0,0 l/m 0,0 km/h (0 Bft) S-SO 157 10,6 C 22,8 C 0,0 km/h (0 Bft)
13.10.2014 20:10 11,9 C 93 % 1013,3 hPa 0,0 l/m 0,0 km/h (0 Bft) S-SO 157 10,8 C 22,8 C 0,0 km/h (0 Bft)
13.10.2014 20:20 11,8 C 93 % 1013,3 hPa 0,0 l/m 0,0 km/h (0 Bft) S-SO 157 10,7 C 22,8 C 0,0 km/h (0 Bft)
13.10.2014 20:30 11,6 C 93 % 1012,9 hPa 0,0 l/m 0,0 km/h (0 Bft) S-SO 157 10,5 C 22,8 C 0,0 km/h (0 Bft)
13.10.2014 20:40 11,6 C 93 % 1012,9 hPa 0,0 l/m 0,0 km/h (0 Bft) S-SO 157 10,5 C 22,8 C 0,0 km/h (0 Bft)
13.10.2014 20:50 11,4 C 94 % 1012,8 hPa 0,0 l/m 0,0 km/h (0 Bft) S-SO 157 10,5 C 22,8 C 0,0 km/h (0 Bft)
13.10.2014 21:00 11,4 C 94 % 1012,8 hPa 0,0 l/m 0,0 km/h (0 Bft) S-SO 157 10,5 C 22,8 C 0,0 km/h (0 Bft)
13.10.2014 21:10 11,4 C 94 % 1012,9 hPa 0,0 l/m 0,0 km/h (0 Bft) S-SO 157 10,5 C 22,8 C 0,0 km/h (0 Bft)
13.10.2014 21:20 11,4 C 94 % 1012,9 hPa 0,0 l/m 0,0 km/h (0 Bft) S-SO 157 10,5 C 22,8 C 0,0 km/h (0 Bft)
13.10.2014 21:30 11,5 C 94 % 1012,8 hPa 0,0 l/m 0,0 km/h (0 Bft) S-SO 157 10,6 C 22,8 C 0,0 km/h (0 Bft)
13.10.2014 21:40 11,6 C 94 % 1012,8 hPa 0,0 l/m 0,0 km/h (0 Bft) S-SO 157 10,7 C 22,8 C 0,0 km/h (0 Bft)
13.10.2014 21:50 11,5 C 94 % 1013,1 hPa 0,0 l/m 0,0 km/h (0 Bft) S-SO 157 10,6 C 22,8 C 0,0 km/h (0 Bft)
13.10.2014 21:58 11,4 C 94 % 1013,1 hPa 0,0 l/m 0,0 km/h (0 Bft) S-SO 157 10,5 C 22,8 C 0,0 km/h (0 Bft)
13.10.2014 22:00 11,4 C 94 % 1013,1 hPa 0,0 l/m 0,0 km/h (0 Bft) S-SO 157 10,5 C 22,8 C 0,0 km/h (0 Bft)
13.10.2014 22:10 11,3 C 94 % 1012,9 hPa 0,0 l/m 0,0 km/h (0 Bft) S-SO 157 10,4 C 22,8 C 0,0 km/h (0 Bft)
13.10.2014 22:20 11,2 C 94 % 1012,9 hPa 0,0 l/m 0,0 km/h (0 Bft) S-SO 157 10,3 C 22,8 C 0,0 km/h (0 Bft)
13.10.2014 22:30 11,1 C 94 % 1012,7 hPa 0,0 l/m 0,0 km/h (0 Bft) S-SO 157 10,2 C 22,8 C 0,0 km/h (0 Bft)
13.10.2014 22:40 11,0 C 95 % 1012,7 hPa 0,0 l/m 0,0 km/h (0 Bft) S-SO 157 10,2 C 22,8 C 0,0 km/h (0 Bft)
13.10.2014 22:50 11,0 C 95 % 1012,9 hPa 0,0 l/m 0,0 km/h (0 Bft) S-SO 157 10,2 C 22,8 C 0,0 km/h (0 Bft)
13.10.2014 23:00 10,9 C 95 % 1012,9 hPa 0,0 l/m 0,0 km/h (0 Bft) S-SO 157 10,1 C 22,8 C 0,0 km/h (0 Bft)
13.10.2014 23:10 10,9 C 95 % 1012,8 hPa 0,0 l/m 0,0 km/h (0 Bft) S-SO 157 10,1 C 22,8 C 0,0 km/h (0 Bft)
13.10.2014 23:20 10,8 C 95 % 1012,8 hPa 0,0 l/m 0,0 km/h (0 Bft) S-SO 157 10,0 C 22,8 C 0,0 km/h (0 Bft)
13.10.2014 23:30 10,9 C 95 % 1012,9 hPa 0,0 l/m 0,0 km/h (0 Bft) S-SO 157 10,1 C 22,8 C 0,0 km/h (0 Bft)
13.10.2014 23:40 11,2 C 95 % 1012,9 hPa 0,0 l/m 0,0 km/h (0 Bft) S-SO 157 10,4 C 22,8 C 0,0 km/h (0 Bft)
13.10.2014 23:50 11,3 C 95 % 1013,2 hPa 0,0 l/m 0,0 km/h (0 Bft) S-SO 157 10,5 C 22,8 C 0,0 km/h (0 Bft)
_ Min-Zeit 01:30 09:00 22:40 - 23:50 - - 00:40 23:50 23:50
Minimum _ 7,6 C 63 % 1012,7 hPa - 0,0 km/h (0 Bft) - - 6,2 C 22,8 C 0,0 km/h (0 Bft)
_ Max-Zeit 11:00 23:50 12:40 23:50 23:50 - - 13:10 23:50 23:50
Maximum _ 18,1 C 95 % 1015,4 hPa 0,0 l/m 0,0 km/h
S-SO (0 Bft)
- - 14,4 C 22,8 C 0,0 km/h
S-SO (0 Bft)
Durchschnitt _ 13,1 C 83 % 1013,7 hPa #0,0 l/m 0,0 km/h (0 Bft) - - - 10,1 C 22,8 C 0,0 km/h (0 Bft)